PWSweather.com
Personal Weather Stations
Station Observations
KFLSTJOH36
Aberdeen Highland Point, Saint Johns, FL 32259

Aberdeen Highland PointSaint Johns, FL 32259

Lat: 30.082981, Lon: -81.59522

Elevation: 60

Station Type: Acurite 5-in-1 Weather Sensor

High Low Average
Temperature 104.7°F40.4°C 77.2°F25.1°C 92.2°F33.4°C
Dew Point 80.6°F27.0°C 74.7°F23.7°C 78.2°F25.7°C
Winds 8.0 mph 12.9 kmh Calm Calm 2.0 mph SW3.2 kmh SW
Wind Gusts -- -- --
Humidity 92% 42% 65%
Pressure 30.14 in1020.7 mb 30.04 in1017.3 mb -
Precipitation 0.01 in0.3 mm - -
Hour Temp Dew Point Humidity Winds Wind Gusts Pressure Precip Precip Rate Daily Precip Total
02:00 AM 78.3°F25.7°C 75.7°F24.3°C 92% Calm Calm -- 30.13 in1020.3 mb 0.00 in0.0 mm 0.00 in0.0 mm 0.00 in0.0 mm
02:05 AM 77.2°F25.1°C 74.7°F23.7°C 92% Calm Calm -- 30.12 in1020.0 mb 0.00 in0.0 mm 0.00 in0.0 mm 0.00 in0.0 mm
05:35 AM 79.2°F26.2°C 76.3°F24.6°C 91% Calm Calm -- 30.12 in1020.0 mb 0.00 in0.0 mm 0.00 in0.0 mm 0.00 in0.0 mm
05:40 AM 80.8°F27.1°C 77.2°F25.1°C 89% Calm Calm -- 30.12 in1020.0 mb 0.01 in0.3 mm 0.12 in3.0 mm 0.01 in0.3 mm
05:45 AM 80.4°F26.9°C 76.9°F24.9°C 89% Calm Calm -- 30.12 in1020.0 mb 0.01 in0.3 mm 0.00 in0.0 mm 0.01 in0.3 mm
05:55 AM 81.0°F27.2°C 77.1°F25.1°C 88% Calm Calm -- 30.12 in1020.0 mb 0.01 in0.3 mm 0.00 in0.0 mm 0.01 in0.3 mm
06:00 AM 81.9°F27.7°C 77.3°F25.2°C 86% Calm Calm -- 30.12 in1020.0 mb 0.01 in0.3 mm 0.00 in0.0 mm 0.01 in0.3 mm
06:05 AM 82.2°F27.9°C 78.0°F25.6°C 87% Calm Calm -- 30.12 in1020.0 mb 0.01 in0.3 mm 0.00 in0.0 mm 0.01 in0.3 mm
06:10 AM 82.8°F28.2°C 77.8°F25.4°C 85% Calm Calm -- 30.12 in1020.0 mb 0.01 in0.3 mm 0.00 in0.0 mm 0.01 in0.3 mm
06:15 AM 81.5°F27.5°C 77.6°F25.3°C 88% Calm Calm -- 30.12 in1020.0 mb 0.01 in0.3 mm 0.00 in0.0 mm 0.01 in0.3 mm
06:20 AM 83.5°F28.6°C 78.5°F25.8°C 85% Calm Calm -- 30.12 in1020.0 mb 0.01 in0.3 mm 0.00 in0.0 mm 0.01 in0.3 mm
06:30 AM 84.2°F29.0°C 78.8°F26.0°C 84% Calm Calm -- 30.12 in1020.0 mb 0.00 in0.0 mm 0.00 in0.0 mm 0.01 in0.3 mm
06:35 AM 82.4°F28.0°C 78.5°F25.8°C 88% Calm Calm -- 30.12 in1020.0 mb 0.00 in0.0 mm 0.00 in0.0 mm 0.01 in0.3 mm
06:40 AM 81.9°F27.7°C 78.3°F25.7°C 89% Calm Calm -- 30.12 in1020.0 mb 0.00 in0.0 mm 0.00 in0.0 mm 0.01 in0.3 mm
06:45 AM 81.5°F27.5°C 78.3°F25.7°C 90% Calm Calm -- 30.12 in1020.0 mb 0.00 in0.0 mm 0.00 in0.0 mm 0.01 in0.3 mm
06:50 AM 84.2°F29.0°C 79.2°F26.2°C 85% Calm Calm -- 30.12 in1020.0 mb 0.00 in0.0 mm 0.00 in0.0 mm 0.01 in0.3 mm
06:55 AM 84.7°F29.3°C 79.7°F26.5°C 85% Calm Calm -- 30.12 in1020.0 mb 0.00 in0.0 mm 0.00 in0.0 mm 0.01 in0.3 mm
07:00 AM 83.7°F28.7°C 79.4°F26.3°C 87% Calm Calm -- 30.13 in1020.3 mb 0.00 in0.0 mm 0.00 in0.0 mm 0.01 in0.3 mm
07:05 AM 86.2°F30.1°C 79.7°F26.5°C 81% Calm Calm -- 30.13 in1020.3 mb 0.00 in0.0 mm 0.00 in0.0 mm 0.01 in0.3 mm
07:10 AM 88.0°F31.1°C 80.3°F26.8°C 78% Calm Calm -- 30.13 in1020.3 mb 0.00 in0.0 mm 0.00 in0.0 mm 0.01 in0.3 mm
07:15 AM 88.3°F31.3°C 80.2°F26.8°C 77% Calm Calm -- 30.13 in1020.3 mb 0.00 in0.0 mm 0.00 in0.0 mm 0.01 in0.3 mm
07:20 AM 83.7°F28.7°C 78.3°F25.7°C 84% 1.0 mph W1.6 kmh W -- 30.13 in1020.3 mb 0.00 in0.0 mm 0.00 in0.0 mm 0.01 in0.3 mm
07:25 AM 85.3°F29.6°C 78.8°F26.0°C 81% 2.0 mph W3.2 kmh W -- 30.13 in1020.3 mb 0.00 in0.0 mm 0.00 in0.0 mm 0.01 in0.3 mm
07:30 AM 87.3°F30.7°C 79.6°F26.4°C 78% Calm Calm -- 30.13 in1020.3 mb 0.00 in0.0 mm 0.00 in0.0 mm 0.01 in0.3 mm
07:35 AM 86.7°F30.4°C 79.0°F26.1°C 78% 2.0 mph W3.2 kmh W -- 30.13 in1020.3 mb 0.00 in0.0 mm 0.00 in0.0 mm 0.01 in0.3 mm
07:40 AM 88.3°F31.3°C 79.8°F26.6°C 76% 2.0 mph W3.2 kmh W -- 30.13 in1020.3 mb 0.00 in0.0 mm 0.00 in0.0 mm 0.01 in0.3 mm
07:45 AM 88.3°F31.3°C 79.4°F26.3°C 75% 3.0 mph W4.8 kmh W -- 30.13 in1020.3 mb 0.00 in0.0 mm 0.00 in0.0 mm 0.01 in0.3 mm
07:50 AM 88.2°F31.2°C 78.8°F26.0°C 74% 3.0 mph WNW4.8 kmh WNW -- 30.13 in1020.3 mb 0.00 in0.0 mm 0.00 in0.0 mm 0.01 in0.3 mm
07:55 AM 88.7°F31.5°C 79.4°F26.3°C 74% 2.0 mph W3.2 kmh W -- 30.13 in1020.3 mb 0.00 in0.0 mm 0.00 in0.0 mm 0.01 in0.3 mm
08:00 AM 90.0°F32.2°C 79.8°F26.6°C 72% 1.0 mph WNW1.6 kmh WNW -- 30.13 in1020.3 mb 0.00 in0.0 mm 0.00 in0.0 mm 0.01 in0.3 mm
08:05 AM 91.9°F33.3°C 80.4°F26.9°C 69% Calm Calm -- 30.13 in1020.3 mb 0.00 in0.0 mm 0.00 in0.0 mm 0.01 in0.3 mm
08:10 AM 90.5°F32.5°C 80.3°F26.8°C 72% 2.0 mph W3.2 kmh W -- 30.13 in1020.3 mb 0.00 in0.0 mm 0.00 in0.0 mm 0.01 in0.3 mm
08:15 AM 91.8°F33.2°C 80.2°F26.8°C 69% 2.0 mph WNW3.2 kmh WNW -- 30.13 in1020.3 mb 0.00 in0.0 mm 0.00 in0.0 mm 0.01 in0.3 mm
08:20 AM 91.6°F33.1°C 80.0°F26.7°C 69% 2.0 mph NW3.2 kmh NW -- 30.13 in1020.3 mb 0.00 in0.0 mm 0.00 in0.0 mm 0.01 in0.3 mm
08:25 AM 91.2°F32.9°C 79.7°F26.5°C 69% 2.0 mph WNW3.2 kmh WNW -- 30.13 in1020.3 mb 0.00 in0.0 mm 0.00 in0.0 mm 0.01 in0.3 mm
08:30 AM 91.4°F33.0°C 79.4°F26.3°C 68% 3.0 mph W4.8 kmh W -- 30.13 in1020.3 mb 0.00 in0.0 mm 0.00 in0.0 mm 0.01 in0.3 mm
08:35 AM 92.3°F33.5°C 80.3°F26.8°C 68% 2.0 mph WNW3.2 kmh WNW -- 30.13 in1020.3 mb 0.00 in0.0 mm 0.00 in0.0 mm 0.01 in0.3 mm
08:40 AM 92.3°F33.5°C 79.8°F26.6°C 67% 2.0 mph NE3.2 kmh NE -- 30.14 in1020.7 mb 0.00 in0.0 mm 0.00 in0.0 mm 0.01 in0.3 mm
08:45 AM 91.4°F33.0°C 79.8°F26.6°C 69% Calm Calm -- 30.14 in1020.7 mb 0.00 in0.0 mm 0.00 in0.0 mm 0.01 in0.3 mm
08:50 AM 92.1°F33.4°C 79.6°F26.4°C 67% 1.0 mph SSW1.6 kmh SSW -- 30.13 in1020.3 mb 0.00 in0.0 mm 0.00 in0.0 mm 0.01 in0.3 mm
08:55 AM 92.3°F33.5°C 79.8°F26.6°C 67% 3.0 mph SW4.8 kmh SW -- 30.13 in1020.3 mb 0.00 in0.0 mm 0.00 in0.0 mm 0.01 in0.3 mm
09:00 AM 92.1°F33.4°C 80.1°F26.7°C 68% 2.0 mph WSW3.2 kmh WSW -- 30.13 in1020.3 mb 0.00 in0.0 mm 0.00 in0.0 mm 0.01 in0.3 mm
09:05 AM 92.8°F33.8°C 79.9°F26.6°C 66% 1.0 mph WSW1.6 kmh WSW -- 30.13 in1020.3 mb 0.00 in0.0 mm 0.00 in0.0 mm 0.01 in0.3 mm
09:10 AM 94.1°F34.5°C 80.6°F27.0°C 65% 2.0 mph W3.2 kmh W -- 30.13 in1020.3 mb 0.00 in0.0 mm 0.00 in0.0 mm 0.01 in0.3 mm
09:15 AM 94.6°F34.8°C 80.6°F27.0°C 64% 3.0 mph W4.8 kmh W -- 30.13 in1020.3 mb 0.00 in0.0 mm 0.00 in0.0 mm 0.01 in0.3 mm
09:20 AM 90.3°F32.4°C 79.2°F26.2°C 70% 2.0 mph WSW3.2 kmh WSW -- 30.13 in1020.3 mb 0.00 in0.0 mm 0.00 in0.0 mm 0.01 in0.3 mm
09:25 AM 89.4°F31.9°C 79.2°F26.2°C 72% 2.0 mph WNW3.2 kmh WNW -- 30.13 in1020.3 mb 0.00 in0.0 mm 0.00 in0.0 mm 0.01 in0.3 mm
09:30 AM 90.1°F32.3°C 79.1°F26.2°C 70% 2.0 mph SW3.2 kmh SW -- 30.13 in1020.3 mb 0.00 in0.0 mm 0.00 in0.0 mm 0.01 in0.3 mm
09:35 AM 90.0°F32.2°C 79.8°F26.6°C 72% 2.0 mph W3.2 kmh W -- 30.13 in1020.3 mb 0.00 in0.0 mm 0.00 in0.0 mm 0.01 in0.3 mm
09:40 AM 90.1°F32.3°C 79.1°F26.2°C 70% 2.0 mph W3.2 kmh W -- 30.13 in1020.3 mb 0.00 in0.0 mm 0.00 in0.0 mm 0.01 in0.3 mm
09:45 AM 90.9°F32.7°C 79.3°F26.3°C 69% 1.0 mph E1.6 kmh E -- 30.13 in1020.3 mb 0.00 in0.0 mm 0.00 in0.0 mm 0.01 in0.3 mm
09:50 AM 90.7°F32.6°C 80.0°F26.7°C 71% 3.0 mph NW4.8 kmh NW -- 30.13 in1020.3 mb 0.00 in0.0 mm 0.00 in0.0 mm 0.01 in0.3 mm
09:55 AM 90.9°F32.7°C 79.8°F26.6°C 70% 2.0 mph WSW3.2 kmh WSW -- 30.13 in1020.3 mb 0.00 in0.0 mm 0.00 in0.0 mm 0.01 in0.3 mm
10:00 AM 92.1°F33.4°C 80.1°F26.7°C 68% 2.0 mph WSW3.2 kmh WSW -- 30.13 in1020.3 mb 0.00 in0.0 mm 0.00 in0.0 mm 0.01 in0.3 mm
10:05 AM 92.3°F33.5°C 79.8°F26.6°C 67% 2.0 mph W3.2 kmh W -- 30.13 in1020.3 mb 0.00 in0.0 mm 0.00 in0.0 mm 0.01 in0.3 mm
10:10 AM 93.4°F34.1°C 79.4°F26.3°C 64% 2.0 mph W3.2 kmh W -- 30.13 in1020.3 mb 0.00 in0.0 mm 0.00 in0.0 mm 0.01 in0.3 mm
10:15 AM 93.7°F34.3°C 80.3°F26.8°C 65% 2.0 mph W3.2 kmh W -- 30.13 in1020.3 mb 0.00 in0.0 mm 0.00 in0.0 mm 0.01 in0.3 mm
10:20 AM 94.6°F34.8°C 80.2°F26.8°C 63% 4.0 mph WNW6.4 kmh WNW -- 30.13 in1020.3 mb 0.00 in0.0 mm 0.00 in0.0 mm 0.01 in0.3 mm
10:25 AM 95.0°F35.0°C 80.0°F26.7°C 62% 2.0 mph WNW3.2 kmh WNW -- 30.13 in1020.3 mb 0.00 in0.0 mm 0.00 in0.0 mm 0.01 in0.3 mm
10:30 AM 93.7°F34.3°C 79.3°F26.3°C 63% 3.0 mph W4.8 kmh W -- 30.13 in1020.3 mb 0.00 in0.0 mm 0.00 in0.0 mm 0.01 in0.3 mm
10:35 AM 93.6°F34.2°C 80.1°F26.7°C 65% 1.0 mph WNW1.6 kmh WNW -- 30.13 in1020.3 mb 0.00 in0.0 mm 0.00 in0.0 mm 0.01 in0.3 mm
10:40 AM 93.9°F34.4°C 79.5°F26.4°C 63% 3.0 mph NW4.8 kmh NW -- 30.13 in1020.3 mb 0.00 in0.0 mm 0.00 in0.0 mm 0.01 in0.3 mm
10:45 AM 94.1°F34.5°C 80.1°F26.7°C 64% 2.0 mph W3.2 kmh W -- 30.12 in1020.0 mb 0.00 in0.0 mm 0.00 in0.0 mm 0.01 in0.3 mm
10:50 AM 94.8°F34.9°C 79.8°F26.6°C 62% 2.0 mph WNW3.2 kmh WNW -- 30.12 in1020.0 mb 0.00 in0.0 mm 0.00 in0.0 mm 0.01 in0.3 mm
10:55 AM 95.0°F35.0°C 79.5°F26.4°C 61% 2.0 mph NNW3.2 kmh NNW -- 30.12 in1020.0 mb 0.00 in0.0 mm 0.00 in0.0 mm 0.01 in0.3 mm
11:00 AM 95.5°F35.3°C 80.0°F26.7°C 61% 3.0 mph NNW4.8 kmh NNW -- 30.12 in1020.0 mb 0.00 in0.0 mm 0.00 in0.0 mm 0.01 in0.3 mm
11:05 AM 95.0°F35.0°C 79.0°F26.1°C 60% 3.0 mph NW4.8 kmh NW -- 30.13 in1020.3 mb 0.00 in0.0 mm 0.00 in0.0 mm 0.01 in0.3 mm
11:10 AM 94.5°F34.7°C 79.0°F26.1°C 61% 2.0 mph NNW3.2 kmh NNW -- 30.12 in1020.0 mb 0.00 in0.0 mm 0.00 in0.0 mm 0.01 in0.3 mm
11:15 AM 95.2°F35.1°C 79.2°F26.2°C 60% 4.0 mph W6.4 kmh W -- 30.12 in1020.0 mb 0.00 in0.0 mm 0.00 in0.0 mm 0.01 in0.3 mm
11:20 AM 95.2°F35.1°C 80.2°F26.8°C 62% 2.0 mph SW3.2 kmh SW -- 30.12 in1020.0 mb 0.00 in0.0 mm 0.00 in0.0 mm 0.01 in0.3 mm
11:25 AM 95.9°F35.5°C 78.8°F26.0°C 58% 5.0 mph WNW8.0 kmh WNW -- 30.12 in1020.0 mb 0.00 in0.0 mm 0.00 in0.0 mm 0.01 in0.3 mm
11:30 AM 96.1°F35.6°C 79.0°F26.1°C 58% 3.0 mph WNW4.8 kmh WNW -- 30.12 in1020.0 mb 0.00 in0.0 mm 0.00 in0.0 mm 0.01 in0.3 mm
11:35 AM 96.4°F35.8°C 79.9°F26.6°C 59% 4.0 mph SW6.4 kmh SW -- 30.12 in1020.0 mb 0.00 in0.0 mm 0.00 in0.0 mm 0.01 in0.3 mm
11:40 AM 96.4°F35.8°C 79.4°F26.3°C 58% 4.0 mph W6.4 kmh W -- 30.12 in1020.0 mb 0.00 in0.0 mm 0.00 in0.0 mm 0.01 in0.3 mm
11:45 AM 96.6°F35.9°C 78.5°F25.8°C 56% 4.0 mph W6.4 kmh W -- 30.12 in1020.0 mb 0.00 in0.0 mm 0.00 in0.0 mm 0.01 in0.3 mm
11:50 AM 96.6°F35.9°C 79.5°F26.4°C 58% 3.0 mph W4.8 kmh W -- 30.12 in1020.0 mb 0.00 in0.0 mm 0.00 in0.0 mm 0.01 in0.3 mm
11:55 AM 96.8°F36.0°C 78.1°F25.6°C 55% 2.0 mph W3.2 kmh W -- 30.12 in1020.0 mb 0.00 in0.0 mm 0.00 in0.0 mm 0.01 in0.3 mm
12:00 PM 97.5°F36.4°C 79.3°F26.3°C 56% 2.0 mph WNW3.2 kmh WNW -- 30.12 in1020.0 mb 0.00 in0.0 mm 0.00 in0.0 mm 0.01 in0.3 mm
12:05 PM 97.3°F36.3°C 78.0°F25.6°C 54% 5.0 mph E8.0 kmh E -- 30.12 in1020.0 mb 0.00 in0.0 mm 0.00 in0.0 mm 0.01 in0.3 mm
12:10 PM 98.6°F37.0°C 78.6°F25.9°C 53% 3.0 mph W4.8 kmh W -- 30.12 in1020.0 mb 0.00 in0.0 mm 0.00 in0.0 mm 0.01 in0.3 mm
12:15 PM 98.6°F37.0°C 79.8°F26.6°C 55% 1.0 mph NW1.6 kmh NW -- 30.11 in1019.6 mb 0.00 in0.0 mm 0.00 in0.0 mm 0.01 in0.3 mm
12:20 PM 98.8°F37.1°C 78.2°F25.7°C 52% 6.0 mph SW9.7 kmh SW -- 30.12 in1020.0 mb 0.00 in0.0 mm 0.00 in0.0 mm 0.01 in0.3 mm
12:25 PM 98.1°F36.7°C 78.1°F25.6°C 53% 4.0 mph NNW6.4 kmh NNW -- 30.11 in1019.6 mb 0.00 in0.0 mm 0.00 in0.0 mm 0.01 in0.3 mm
12:30 PM 99.0°F37.2°C 79.0°F26.1°C 53% 3.0 mph WNW4.8 kmh WNW -- 30.11 in1019.6 mb 0.00 in0.0 mm 0.00 in0.0 mm 0.01 in0.3 mm
12:35 PM 97.7°F36.5°C 78.4°F25.8°C 54% 6.0 mph NE9.7 kmh NE -- 30.11 in1019.6 mb 0.00 in0.0 mm 0.00 in0.0 mm 0.01 in0.3 mm
12:40 PM 98.4°F36.9°C 79.6°F26.4°C 55% 3.0 mph SW4.8 kmh SW -- 30.11 in1019.6 mb 0.00 in0.0 mm 0.00 in0.0 mm 0.01 in0.3 mm
12:45 PM 99.1°F37.3°C 78.0°F25.6°C 51% 4.0 mph WSW6.4 kmh WSW -- 30.11 in1019.6 mb 0.00 in0.0 mm 0.00 in0.0 mm 0.01 in0.3 mm
12:50 PM 98.8°F37.1°C 78.8°F26.0°C 53% 3.0 mph W4.8 kmh W -- 30.11 in1019.6 mb 0.00 in0.0 mm 0.00 in0.0 mm 0.01 in0.3 mm
12:55 PM 100.0°F37.8°C 78.2°F25.7°C 50% 3.0 mph NW4.8 kmh NW -- 30.11 in1019.6 mb 0.00 in0.0 mm 0.00 in0.0 mm 0.01 in0.3 mm
01:00 PM 100.6°F38.1°C 78.1°F25.6°C 49% 4.0 mph W6.4 kmh W -- 30.11 in1019.6 mb 0.00 in0.0 mm 0.00 in0.0 mm 0.01 in0.3 mm
01:05 PM 100.2°F37.9°C 77.8°F25.4°C 49% 3.0 mph W4.8 kmh W -- 30.11 in1019.6 mb 0.00 in0.0 mm 0.00 in0.0 mm 0.01 in0.3 mm
01:10 PM 100.6°F38.1°C 78.1°F25.6°C 49% 4.0 mph SW6.4 kmh SW -- 30.10 in1019.3 mb 0.00 in0.0 mm 0.00 in0.0 mm 0.01 in0.3 mm
01:15 PM 101.3°F38.5°C 78.2°F25.7°C 48% 3.0 mph WNW4.8 kmh WNW -- 30.10 in1019.3 mb 0.00 in0.0 mm 0.00 in0.0 mm 0.01 in0.3 mm
01:20 PM 100.6°F38.1°C 78.1°F25.6°C 49% 3.0 mph WSW4.8 kmh WSW -- 30.10 in1019.3 mb 0.00 in0.0 mm 0.00 in0.0 mm 0.01 in0.3 mm
01:25 PM 100.4°F38.0°C 77.3°F25.2°C 48% 2.0 mph WSW3.2 kmh WSW -- 30.10 in1019.3 mb 0.00 in0.0 mm 0.00 in0.0 mm 0.01 in0.3 mm
01:30 PM 101.7°F38.7°C 77.9°F25.5°C 47% 2.0 mph WNW3.2 kmh WNW -- 30.10 in1019.3 mb 0.00 in0.0 mm 0.00 in0.0 mm 0.01 in0.3 mm
01:35 PM 102.4°F39.1°C 77.9°F25.5°C 46% 5.0 mph W8.0 kmh W -- 30.10 in1019.3 mb 0.00 in0.0 mm 0.00 in0.0 mm 0.01 in0.3 mm
01:40 PM 101.3°F38.5°C 78.2°F25.7°C 48% 2.0 mph NNW3.2 kmh NNW -- 30.10 in1019.3 mb 0.00 in0.0 mm 0.00 in0.0 mm 0.01 in0.3 mm
01:45 PM 101.8°F38.8°C 76.7°F24.8°C 45% 3.0 mph NNW4.8 kmh NNW -- 30.09 in1019.0 mb 0.00 in0.0 mm 0.00 in0.0 mm 0.01 in0.3 mm
01:50 PM 102.2°F39.0°C 77.7°F25.4°C 46% 3.0 mph W4.8 kmh W -- 30.09 in1019.0 mb 0.00 in0.0 mm 0.00 in0.0 mm 0.01 in0.3 mm
01:55 PM 101.3°F38.5°C 76.9°F24.9°C 46% 3.0 mph W4.8 kmh W -- 30.09 in1019.0 mb 0.00 in0.0 mm 0.00 in0.0 mm 0.01 in0.3 mm
02:00 PM 101.8°F38.8°C 77.4°F25.2°C 46% 2.0 mph WNW3.2 kmh WNW -- 30.09 in1019.0 mb 0.00 in0.0 mm 0.00 in0.0 mm 0.01 in0.3 mm
02:05 PM 101.7°F38.7°C 77.2°F25.1°C 46% 2.0 mph W3.2 kmh W -- 30.09 in1019.0 mb 0.00 in0.0 mm 0.00 in0.0 mm 0.01 in0.3 mm
02:10 PM 102.9°F39.4°C 77.7°F25.4°C 45% 2.0 mph WNW3.2 kmh WNW -- 30.09 in1019.0 mb 0.00 in0.0 mm 0.00 in0.0 mm 0.01 in0.3 mm
02:15 PM 102.2°F39.0°C 76.4°F24.7°C 44% 2.0 mph NW3.2 kmh NW -- 30.09 in1019.0 mb 0.00 in0.0 mm 0.00 in0.0 mm 0.01 in0.3 mm
02:20 PM 102.2°F39.0°C 76.4°F24.7°C 44% 4.0 mph WSW6.4 kmh WSW -- 30.08 in1018.6 mb 0.00 in0.0 mm 0.00 in0.0 mm 0.01 in0.3 mm
02:25 PM 101.5°F38.6°C 77.7°F25.4°C 47% 2.0 mph W3.2 kmh W -- 30.08 in1018.6 mb 0.00 in0.0 mm 0.00 in0.0 mm 0.01 in0.3 mm
02:30 PM 102.7°F39.3°C 76.9°F24.9°C 44% 3.0 mph SW4.8 kmh SW -- 30.08 in1018.6 mb 0.00 in0.0 mm 0.00 in0.0 mm 0.01 in0.3 mm
02:35 PM 102.4°F39.1°C 76.5°F24.7°C 44% 2.0 mph WNW3.2 kmh WNW -- 30.08 in1018.6 mb 0.00 in0.0 mm 0.00 in0.0 mm 0.01 in0.3 mm
02:40 PM 102.2°F39.0°C 78.4°F25.8°C 47% 2.0 mph W3.2 kmh W -- 30.08 in1018.6 mb 0.00 in0.0 mm 0.00 in0.0 mm 0.01 in0.3 mm
02:45 PM 103.1°F39.5°C 75.8°F24.3°C 42% 8.0 mph SW12.9 kmh SW -- 30.07 in1018.3 mb 0.00 in0.0 mm 0.00 in0.0 mm 0.01 in0.3 mm
02:50 PM 101.8°F38.8°C 76.0°F24.4°C 44% 3.0 mph NNW4.8 kmh NNW -- 30.07 in1018.3 mb 0.00 in0.0 mm 0.00 in0.0 mm 0.01 in0.3 mm
02:55 PM 102.0°F38.9°C 76.2°F24.6°C 44% 2.0 mph W3.2 kmh W -- 30.07 in1018.3 mb 0.00 in0.0 mm 0.00 in0.0 mm 0.01 in0.3 mm
03:00 PM 100.0°F37.8°C 75.7°F24.3°C 46% 4.0 mph E6.4 kmh E -- 30.07 in1018.3 mb 0.00 in0.0 mm 0.00 in0.0 mm 0.01 in0.3 mm
03:05 PM 100.8°F38.2°C 76.4°F24.7°C 46% 4.0 mph WSW6.4 kmh WSW -- 30.07 in1018.3 mb 0.00 in0.0 mm 0.00 in0.0 mm 0.01 in0.3 mm
03:10 PM 100.2°F37.9°C 75.9°F24.4°C 46% 2.0 mph NNW3.2 kmh NNW -- 30.07 in1018.3 mb 0.00 in0.0 mm 0.00 in0.0 mm 0.01 in0.3 mm
03:15 PM 101.3°F38.5°C 76.2°F24.6°C 45% 2.0 mph W3.2 kmh W -- 30.07 in1018.3 mb 0.00 in0.0 mm 0.00 in0.0 mm 0.01 in0.3 mm
03:20 PM 99.7°F37.6°C 76.7°F24.8°C 48% 2.0 mph NW3.2 kmh NW -- 30.07 in1018.3 mb 0.00 in0.0 mm 0.00 in0.0 mm 0.01 in0.3 mm
03:25 PM 101.1°F38.4°C 76.7°F24.8°C 46% 3.0 mph WSW4.8 kmh WSW -- 30.07 in1018.3 mb 0.00 in0.0 mm 0.00 in0.0 mm 0.01 in0.3 mm
03:30 PM 102.2°F39.0°C 75.7°F24.3°C 43% 3.0 mph W4.8 kmh W -- 30.06 in1017.9 mb 0.00 in0.0 mm 0.00 in0.0 mm 0.01 in0.3 mm
03:35 PM 102.0°F38.9°C 77.5°F25.3°C 46% 4.0 mph NNE6.4 kmh NNE -- 30.06 in1017.9 mb 0.00 in0.0 mm 0.00 in0.0 mm 0.01 in0.3 mm
03:40 PM 104.7°F40.4°C 77.3°F25.2°C 42% 3.0 mph WNW4.8 kmh WNW -- 30.06 in1017.9 mb 0.00 in0.0 mm 0.00 in0.0 mm 0.01 in0.3 mm
03:45 PM 101.3°F38.5°C 75.6°F24.2°C 44% 1.0 mph E1.6 kmh E -- 30.06 in1017.9 mb 0.00 in0.0 mm 0.00 in0.0 mm 0.01 in0.3 mm
03:50 PM 101.7°F38.7°C 75.9°F24.4°C 44% 2.0 mph W3.2 kmh W -- 30.05 in1017.6 mb 0.00 in0.0 mm 0.00 in0.0 mm 0.01 in0.3 mm
03:55 PM 100.6°F38.1°C 75.6°F24.2°C 45% 2.0 mph WNW3.2 kmh WNW -- 30.05 in1017.6 mb 0.00 in0.0 mm 0.00 in0.0 mm 0.01 in0.3 mm
04:00 PM 101.8°F38.8°C 76.0°F24.4°C 44% 2.0 mph NE3.2 kmh NE -- 30.05 in1017.6 mb 0.00 in0.0 mm 0.00 in0.0 mm 0.01 in0.3 mm
04:05 PM 100.6°F38.1°C 75.6°F24.2°C 45% 2.0 mph E3.2 kmh E -- 30.05 in1017.6 mb 0.00 in0.0 mm 0.00 in0.0 mm 0.01 in0.3 mm
04:10 PM 100.6°F38.1°C 75.6°F24.2°C 45% Calm Calm -- 30.05 in1017.6 mb 0.00 in0.0 mm 0.00 in0.0 mm 0.01 in0.3 mm
04:15 PM 101.1°F38.4°C 76.7°F24.8°C 46% 1.0 mph SW1.6 kmh SW -- 30.05 in1017.6 mb 0.00 in0.0 mm 0.00 in0.0 mm 0.01 in0.3 mm
04:20 PM 100.4°F38.0°C 76.7°F24.8°C 47% 2.0 mph NNW3.2 kmh NNW -- 30.05 in1017.6 mb 0.00 in0.0 mm 0.00 in0.0 mm 0.01 in0.3 mm
04:25 PM 99.1°F37.3°C 78.6°F25.9°C 52% 4.0 mph S6.4 kmh S -- 30.05 in1017.6 mb 0.00 in0.0 mm 0.00 in0.0 mm 0.01 in0.3 mm
04:30 PM 99.0°F37.2°C 77.2°F25.1°C 50% 3.0 mph SW4.8 kmh SW -- 30.04 in1017.3 mb 0.00 in0.0 mm 0.00 in0.0 mm 0.01 in0.3 mm
04:35 PM 100.8°F38.2°C 77.7°F25.4°C 48% 6.0 mph WSW9.7 kmh WSW -- 30.04 in1017.3 mb 0.00 in0.0 mm 0.00 in0.0 mm 0.01 in0.3 mm
04:40 PM 100.2°F37.9°C 77.8°F25.4°C 49% 4.0 mph ESE6.4 kmh ESE -- 30.05 in1017.6 mb 0.00 in0.0 mm 0.00 in0.0 mm 0.01 in0.3 mm
04:45 PM 100.9°F38.3°C 78.4°F25.8°C 49% 2.0 mph S3.2 kmh S -- 30.05 in1017.6 mb 0.00 in0.0 mm 0.00 in0.0 mm 0.01 in0.3 mm
04:50 PM 99.7°F37.6°C 77.9°F25.5°C 50% 3.0 mph ENE4.8 kmh ENE -- 30.05 in1017.6 mb 0.00 in0.0 mm 0.00 in0.0 mm 0.01 in0.3 mm
04:55 PM 98.4°F36.9°C 77.9°F25.5°C 52% 3.0 mph SSW4.8 kmh SSW -- 30.05 in1017.6 mb 0.00 in0.0 mm 0.00 in0.0 mm 0.01 in0.3 mm
05:00 PM 97.2°F36.2°C 77.3°F25.2°C 53% 4.0 mph WSW6.4 kmh WSW -- 30.05 in1017.6 mb 0.00 in0.0 mm 0.00 in0.0 mm 0.01 in0.3 mm
05:05 PM 96.1°F35.6°C 77.4°F25.2°C 55% 2.0 mph ESE3.2 kmh ESE -- 30.05 in1017.6 mb 0.00 in0.0 mm 0.00 in0.0 mm 0.01 in0.3 mm
05:10 PM 95.7°F35.4°C 77.6°F25.3°C 56% 1.0 mph ESE1.6 kmh ESE -- 30.05 in1017.6 mb 0.00 in0.0 mm 0.00 in0.0 mm 0.01 in0.3 mm
05:15 PM 96.3°F35.7°C 77.6°F25.3°C 55% 1.0 mph ESE1.6 kmh ESE -- 30.05 in1017.6 mb 0.00 in0.0 mm 0.00 in0.0 mm 0.01 in0.3 mm
05:20 PM 96.3°F35.7°C 78.1°F25.6°C 56% 2.0 mph SSE3.2 kmh SSE -- 30.05 in1017.6 mb 0.00 in0.0 mm 0.00 in0.0 mm 0.01 in0.3 mm
05:25 PM 96.4°F35.8°C 78.3°F25.7°C 56% 4.0 mph ESE6.4 kmh ESE -- 30.05 in1017.6 mb 0.00 in0.0 mm 0.00 in0.0 mm 0.01 in0.3 mm
05:30 PM 95.7°F35.4°C 78.7°F25.9°C 58% 3.0 mph SE4.8 kmh SE -- 30.05 in1017.6 mb 0.00 in0.0 mm 0.00 in0.0 mm 0.01 in0.3 mm
05:35 PM 94.8°F34.9°C 78.9°F26.1°C 60% 1.0 mph SW1.6 kmh SW -- 30.05 in1017.6 mb 0.00 in0.0 mm 0.00 in0.0 mm 0.01 in0.3 mm
05:40 PM 94.5°F34.7°C 78.5°F25.8°C 60% 2.0 mph SE3.2 kmh SE -- 30.05 in1017.6 mb 0.00 in0.0 mm 0.00 in0.0 mm 0.01 in0.3 mm
05:45 PM 94.3°F34.6°C 78.3°F25.7°C 60% 3.0 mph ESE4.8 kmh ESE -- 30.05 in1017.6 mb 0.00 in0.0 mm 0.00 in0.0 mm 0.01 in0.3 mm
05:50 PM 93.9°F34.4°C 78.5°F25.8°C 61% 1.0 mph WSW1.6 kmh WSW -- 30.05 in1017.6 mb 0.00 in0.0 mm 0.00 in0.0 mm 0.01 in0.3 mm
05:55 PM 93.9°F34.4°C 78.5°F25.8°C 61% 3.0 mph ESE4.8 kmh ESE -- 30.05 in1017.6 mb 0.00 in0.0 mm 0.00 in0.0 mm 0.01 in0.3 mm
06:00 PM 93.6°F34.2°C 78.7°F25.9°C 62% 1.0 mph SE1.6 kmh SE -- 30.05 in1017.6 mb 0.00 in0.0 mm 0.00 in0.0 mm 0.01 in0.3 mm
06:05 PM 93.6°F34.2°C 78.7°F25.9°C 62% Calm Calm -- 30.05 in1017.6 mb 0.00 in0.0 mm 0.00 in0.0 mm 0.01 in0.3 mm
06:10 PM 93.2°F34.0°C 78.8°F26.0°C 63% 5.0 mph SE8.0 kmh SE -- 30.05 in1017.6 mb 0.00 in0.0 mm 0.00 in0.0 mm 0.01 in0.3 mm
06:15 PM 92.5°F33.6°C 78.1°F25.6°C 63% 2.0 mph S3.2 kmh S -- 30.05 in1017.6 mb 0.00 in0.0 mm 0.00 in0.0 mm 0.01 in0.3 mm
06:20 PM 92.8°F33.8°C 78.5°F25.8°C 63% 3.0 mph SSE4.8 kmh SSE -- 30.05 in1017.6 mb 0.00 in0.0 mm 0.00 in0.0 mm 0.01 in0.3 mm
06:25 PM 93.0°F33.9°C 78.6°F25.9°C 63% 1.0 mph SE1.6 kmh SE -- 30.05 in1017.6 mb 0.00 in0.0 mm 0.00 in0.0 mm 0.01 in0.3 mm
06:30 PM 92.3°F33.5°C 78.4°F25.8°C 64% 3.0 mph SSE4.8 kmh SSE -- 30.05 in1017.6 mb 0.00 in0.0 mm 0.00 in0.0 mm 0.01 in0.3 mm
06:35 PM 92.7°F33.7°C 78.8°F26.0°C 64% 2.0 mph SE3.2 kmh SE -- 30.05 in1017.6 mb 0.00 in0.0 mm 0.00 in0.0 mm 0.01 in0.3 mm
06:40 PM 92.3°F33.5°C 78.9°F26.1°C 65% Calm Calm -- 30.05 in1017.6 mb 0.00 in0.0 mm 0.00 in0.0 mm 0.01 in0.3 mm
06:45 PM 91.8°F33.2°C 78.4°F25.8°C 65% 4.0 mph ESE6.4 kmh ESE -- 30.05 in1017.6 mb 0.00 in0.0 mm 0.00 in0.0 mm 0.01 in0.3 mm
06:50 PM 91.9°F33.3°C 79.0°F26.1°C 66% 2.0 mph S3.2 kmh S -- 30.05 in1017.6 mb 0.00 in0.0 mm 0.00 in0.0 mm 0.01 in0.3 mm
06:55 PM 91.4°F33.0°C 78.5°F25.8°C 66% 2.0 mph SE3.2 kmh SE -- 30.05 in1017.6 mb 0.00 in0.0 mm 0.00 in0.0 mm 0.01 in0.3 mm
07:00 PM 91.0°F32.8°C 78.6°F25.9°C 67% 3.0 mph ESE4.8 kmh ESE -- 30.05 in1017.6 mb 0.00 in0.0 mm 0.00 in0.0 mm 0.01 in0.3 mm
07:05 PM 91.4°F33.0°C 78.9°F26.1°C 67% 3.0 mph SSW4.8 kmh SSW -- 30.05 in1017.6 mb 0.00 in0.0 mm 0.00 in0.0 mm 0.01 in0.3 mm
07:10 PM 91.2°F32.9°C 78.8°F26.0°C 67% Calm Calm -- 30.05 in1017.6 mb 0.00 in0.0 mm 0.00 in0.0 mm 0.01 in0.3 mm
07:15 PM 90.7°F32.6°C 78.7°F25.9°C 68% 2.0 mph SSE3.2 kmh SSE -- 30.05 in1017.6 mb 0.00 in0.0 mm 0.00 in0.0 mm 0.01 in0.3 mm
07:20 PM 90.3°F32.4°C 78.8°F26.0°C 69% 2.0 mph S3.2 kmh S -- 30.05 in1017.6 mb 0.00 in0.0 mm 0.00 in0.0 mm 0.01 in0.3 mm
07:25 PM 90.1°F32.3°C 78.6°F25.9°C 69% 2.0 mph SSW3.2 kmh SSW -- 30.06 in1017.9 mb 0.00 in0.0 mm 0.00 in0.0 mm 0.01 in0.3 mm
07:30 PM 89.6°F32.0°C 78.5°F25.8°C 70% 2.0 mph WSW3.2 kmh WSW -- 30.06 in1017.9 mb 0.00 in0.0 mm 0.00 in0.0 mm 0.01 in0.3 mm
07:35 PM 89.1°F31.7°C 78.5°F25.8°C 71% 2.0 mph SW3.2 kmh SW -- 30.06 in1017.9 mb 0.00 in0.0 mm 0.00 in0.0 mm 0.01 in0.3 mm
07:40 PM 89.1°F31.7°C 78.5°F25.8°C 71% 2.0 mph SSW3.2 kmh SSW -- 30.06 in1017.9 mb 0.00 in0.0 mm 0.00 in0.0 mm 0.01 in0.3 mm
07:45 PM 89.4°F31.9°C 78.8°F26.0°C 71% 1.0 mph WSW1.6 kmh WSW -- 30.06 in1017.9 mb 0.00 in0.0 mm 0.00 in0.0 mm 0.01 in0.3 mm
07:50 PM 89.4°F31.9°C 78.8°F26.0°C 71% 1.0 mph SSW1.6 kmh SSW -- 30.06 in1017.9 mb 0.00 in0.0 mm 0.00 in0.0 mm 0.01 in0.3 mm
07:55 PM 88.9°F31.6°C 78.7°F25.9°C 72% Calm Calm -- 30.06 in1017.9 mb 0.00 in0.0 mm 0.00 in0.0 mm 0.01 in0.3 mm
08:00 PM 88.3°F31.3°C 78.6°F25.9°C 73% 2.0 mph W3.2 kmh W -- 30.07 in1018.3 mb 0.00 in0.0 mm 0.00 in0.0 mm 0.01 in0.3 mm
08:05 PM 88.2°F31.2°C 78.4°F25.8°C 73% 1.0 mph ESE1.6 kmh ESE -- 30.06 in1017.9 mb 0.00 in0.0 mm 0.00 in0.0 mm 0.01 in0.3 mm
08:10 PM 88.0°F31.1°C 78.7°F25.9°C 74% Calm Calm -- 30.06 in1017.9 mb 0.00 in0.0 mm 0.00 in0.0 mm 0.01 in0.3 mm
08:15 PM 87.8°F31.0°C 78.5°F25.8°C 74% 4.0 mph SW6.4 kmh SW -- 30.07 in1018.3 mb 0.00 in0.0 mm 0.00 in0.0 mm 0.01 in0.3 mm
08:20 PM 87.3°F30.7°C 78.4°F25.8°C 75% 3.0 mph WSW4.8 kmh WSW -- 30.07 in1018.3 mb 0.00 in0.0 mm 0.00 in0.0 mm 0.01 in0.3 mm
08:25 PM 86.9°F30.5°C 78.0°F25.6°C 75% 3.0 mph WSW4.8 kmh WSW -- 30.07 in1018.3 mb 0.00 in0.0 mm 0.00 in0.0 mm 0.01 in0.3 mm
08:30 PM 87.1°F30.6°C 78.2°F25.7°C 75% 1.0 mph SW1.6 kmh SW -- 30.07 in1018.3 mb 0.00 in0.0 mm 0.00 in0.0 mm 0.01 in0.3 mm
08:35 PM 87.1°F30.6°C 78.2°F25.7°C 75% 2.0 mph SSW3.2 kmh SSW -- 30.08 in1018.6 mb 0.00 in0.0 mm 0.00 in0.0 mm 0.01 in0.3 mm
08:40 PM 87.1°F30.6°C 78.2°F25.7°C 75% 3.0 mph WSW4.8 kmh WSW -- 30.08 in1018.6 mb 0.00 in0.0 mm 0.00 in0.0 mm 0.01 in0.3 mm
08:45 PM 87.1°F30.6°C 78.2°F25.7°C 75% 3.0 mph W4.8 kmh W -- 30.08 in1018.6 mb 0.00 in0.0 mm 0.00 in0.0 mm 0.01 in0.3 mm
08:50 PM 86.9°F30.5°C 78.0°F25.6°C 75% 1.0 mph WSW1.6 kmh WSW -- 30.08 in1018.6 mb 0.00 in0.0 mm 0.00 in0.0 mm 0.01 in0.3 mm
08:55 PM 86.9°F30.5°C 78.0°F25.6°C 75% 2.0 mph W3.2 kmh W -- 30.08 in1018.6 mb 0.00 in0.0 mm 0.00 in0.0 mm 0.01 in0.3 mm
09:00 PM 86.7°F30.4°C 77.9°F25.5°C 75% 4.0 mph SSW6.4 kmh SSW -- 30.09 in1019.0 mb 0.00 in0.0 mm 0.00 in0.0 mm 0.01 in0.3 mm
09:05 PM 86.4°F30.2°C 77.9°F25.5°C 76% 4.0 mph WSW6.4 kmh WSW -- 30.09 in1019.0 mb 0.00 in0.0 mm 0.00 in0.0 mm 0.01 in0.3 mm
09:10 PM 86.4°F30.2°C 77.9°F25.5°C 76% 2.0 mph WSW3.2 kmh WSW -- 30.09 in1019.0 mb 0.00 in0.0 mm 0.00 in0.0 mm 0.01 in0.3 mm
09:15 PM 86.5°F30.3°C 78.1°F25.6°C 76% 2.0 mph WSW3.2 kmh WSW -- 30.09 in1019.0 mb 0.00 in0.0 mm 0.00 in0.0 mm 0.01 in0.3 mm
09:20 PM 86.2°F30.1°C 77.7°F25.4°C 76% 1.0 mph W1.6 kmh W -- 30.09 in1019.0 mb 0.00 in0.0 mm 0.00 in0.0 mm 0.01 in0.3 mm
09:25 PM 85.8°F29.9°C 77.8°F25.4°C 77% 4.0 mph SW6.4 kmh SW -- 30.09 in1019.0 mb 0.00 in0.0 mm 0.00 in0.0 mm 0.01 in0.3 mm
09:30 PM 85.5°F29.7°C 77.4°F25.2°C 77% 2.0 mph WSW3.2 kmh WSW -- 30.09 in1019.0 mb 0.00 in0.0 mm 0.00 in0.0 mm 0.01 in0.3 mm
09:35 PM 85.5°F29.7°C 77.4°F25.2°C 77% 2.0 mph SSW3.2 kmh SSW -- 30.10 in1019.3 mb 0.00 in0.0 mm 0.00 in0.0 mm 0.01 in0.3 mm
09:40 PM 85.1°F29.5°C 77.5°F25.3°C 78% 5.0 mph SSW8.0 kmh SSW -- 30.10 in1019.3 mb 0.00 in0.0 mm 0.00 in0.0 mm 0.01 in0.3 mm
09:45 PM 85.5°F29.7°C 77.4°F25.2°C 77% 1.0 mph SW1.6 kmh SW -- 30.10 in1019.3 mb 0.00 in0.0 mm 0.00 in0.0 mm 0.01 in0.3 mm
09:50 PM 85.3°F29.6°C 77.3°F25.2°C 77% 2.0 mph SSW3.2 kmh SSW -- 30.10 in1019.3 mb 0.00 in0.0 mm 0.00 in0.0 mm 0.01 in0.3 mm
09:55 PM 85.3°F29.6°C 77.3°F25.2°C 77% 1.0 mph W1.6 kmh W -- 30.10 in1019.3 mb 0.00 in0.0 mm 0.00 in0.0 mm 0.01 in0.3 mm
10:00 PM 84.9°F29.4°C 76.9°F24.9°C 77% 2.0 mph WSW3.2 kmh WSW -- 30.10 in1019.3 mb 0.00 in0.0 mm 0.00 in0.0 mm 0.01 in0.3 mm
10:05 PM 84.9°F29.4°C 76.9°F24.9°C 77% Calm Calm -- 30.10 in1019.3 mb 0.00 in0.0 mm 0.00 in0.0 mm 0.01 in0.3 mm
10:10 PM 84.7°F29.3°C 76.7°F24.8°C 77% 2.0 mph W3.2 kmh W -- 30.10 in1019.3 mb 0.00 in0.0 mm 0.00 in0.0 mm 0.01 in0.3 mm
10:15 PM 84.2°F29.0°C 76.6°F24.8°C 78% Calm Calm -- 30.10 in1019.3 mb 0.00 in0.0 mm 0.00 in0.0 mm 0.01 in0.3 mm
10:20 PM 84.4°F29.1°C 76.8°F24.9°C 78% 1.0 mph W1.6 kmh W -- 30.10 in1019.3 mb 0.00 in0.0 mm 0.00 in0.0 mm 0.01 in0.3 mm
10:25 PM 84.2°F29.0°C 76.6°F24.8°C 78% Calm Calm -- 30.10 in1019.3 mb 0.00 in0.0 mm 0.00 in0.0 mm 0.01 in0.3 mm
10:30 PM 84.0°F28.9°C 76.8°F24.9°C 79% 1.0 mph W1.6 kmh W -- 30.10 in1019.3 mb 0.00 in0.0 mm 0.00 in0.0 mm 0.01 in0.3 mm
10:35 PM 84.2°F29.0°C 77.0°F25.0°C 79% 2.0 mph SSW3.2 kmh SSW -- 30.10 in1019.3 mb 0.00 in0.0 mm 0.00 in0.0 mm 0.01 in0.3 mm
10:40 PM 84.0°F28.9°C 76.8°F24.9°C 79% 3.0 mph SSW4.8 kmh SSW -- 30.10 in1019.3 mb 0.00 in0.0 mm 0.00 in0.0 mm 0.01 in0.3 mm
10:45 PM 84.0°F28.9°C 76.8°F24.9°C 79% Calm Calm -- 30.10 in1019.3 mb 0.00 in0.0 mm 0.00 in0.0 mm 0.01 in0.3 mm
10:50 PM 83.8°F28.8°C 77.0°F25.0°C 80% 1.0 mph W1.6 kmh W -- 30.10 in1019.3 mb 0.00 in0.0 mm 0.00 in0.0 mm 0.01 in0.3 mm
10:55 PM 83.5°F28.6°C 77.0°F25.0°C 81% Calm Calm -- 30.10 in1019.3 mb 0.00 in0.0 mm 0.00 in0.0 mm 0.01 in0.3 mm
11:00 PM 83.1°F28.4°C 76.7°F24.8°C 81% Calm Calm -- 30.10 in1019.3 mb 0.00 in0.0 mm 0.00 in0.0 mm 0.01 in0.3 mm
11:05 PM 83.1°F28.4°C 77.1°F25.1°C 82% 1.0 mph SW1.6 kmh SW -- 30.09 in1019.0 mb 0.00 in0.0 mm 0.00 in0.0 mm 0.01 in0.3 mm
11:10 PM 83.3°F28.5°C 77.2°F25.1°C 82% 1.0 mph W1.6 kmh W -- 30.10 in1019.3 mb 0.00 in0.0 mm 0.00 in0.0 mm 0.01 in0.3 mm
11:15 PM 83.3°F28.5°C 77.2°F25.1°C 82% 2.0 mph W3.2 kmh W -- 30.10 in1019.3 mb 0.00 in0.0 mm 0.00 in0.0 mm 0.01 in0.3 mm
11:20 PM 83.3°F28.5°C 77.2°F25.1°C 82% Calm Calm -- 30.09 in1019.0 mb 0.00 in0.0 mm 0.00 in0.0 mm 0.01 in0.3 mm
11:25 PM 83.3°F28.5°C 77.2°F25.1°C 82% 2.0 mph WNW3.2 kmh WNW -- 30.09 in1019.0 mb 0.00 in0.0 mm 0.00 in0.0 mm 0.01 in0.3 mm
11:30 PM 83.1°F28.4°C 77.1°F25.1°C 82% 2.0 mph WNW3.2 kmh WNW -- 30.09 in1019.0 mb 0.00 in0.0 mm 0.00 in0.0 mm 0.01 in0.3 mm
11:35 PM 83.1°F28.4°C 77.4°F25.2°C 83% 2.0 mph W3.2 kmh W -- 30.09 in1019.0 mb 0.00 in0.0 mm 0.00 in0.0 mm 0.01 in0.3 mm
11:40 PM 82.9°F28.3°C 77.2°F25.1°C 83% 2.0 mph WNW3.2 kmh WNW -- 30.09 in1019.0 mb 0.00 in0.0 mm 0.00 in0.0 mm 0.01 in0.3 mm
11:45 PM 83.1°F28.4°C 77.8°F25.4°C 84% 2.0 mph W3.2 kmh W -- 30.09 in1019.0 mb 0.00 in0.0 mm 0.00 in0.0 mm 0.01 in0.3 mm
11:50 PM 83.1°F28.4°C 77.8°F25.4°C 84% 2.0 mph WNW3.2 kmh WNW -- 30.09 in1019.0 mb 0.00 in0.0 mm 0.00 in0.0 mm 0.01 in0.3 mm
11:55 PM 83.5°F28.6°C 77.8°F25.4°C 83% 3.0 mph WNW4.8 kmh WNW -- 30.09 in1019.0 mb 0.00 in0.0 mm 0.00 in0.0 mm 0.01 in0.3 mm